Weather History for KFEP - January, 2014

Change the Weather History Date:

Sunday, January 19, 2014

  Actual Average (KRFD) Record (KRFD)
Temperature  
Mean Temperature 23 °F 21 °F  
Max Temperature 38 °F 29 °F 53 °F (2006)
Min Temperature 8 °F 13 °F -24 °F (1994)
Degree Days  
Heating Degree Days 42 44  
Month to date heating degree days 830  
Since 1 July heating degree days 3391  
Cooling Degree Days 0 0  
Month to date cooling degree days 0  
Year to date cooling degree days 0  
Moisture  
Dew Point 21 °F    
Average Humidity 83    
Maximum Humidity 89    
Minimum Humidity 76    
Precipitation  
Precipitation 0.02 in 0.04 in 1.31 in (1988)
Month to date precipitation 0.88  
Year to date precipitation 0.88  
Snow  
Snow 0.00 in 0.30 in 8.30 in (1995)
Month to date snowfall 6.4  
Since 1 July snowfall 19.5  
Snow Depth -    
Sea Level Pressure  
Sea Level Pressure 29.67 in    
Wind  
Wind Speed 12 mph (WSW)    
Max Wind Speed 25 mph    
Max Gust Speed 31 mph    
Visibility 9 miles    
Events      
T = Trace of Precipitation, MM = Missing Value Source: NWS Daily Summary

Daily Weather History Graph

Daily Weather History Graph

Search for Another Location

Airport or City:

Trip Planner

Search our weather history database for the weather conditions in past years. The results will help you decide how hot, cold, wet, or windy it might be!

Date:

Astronomy

Jan. 19, 2014 Rise Set
Actual Time 7:22 AM CST 4:56 PM CST
Civil Twilight 6:51 AM CST 5:26 PM CST
Nautical Twilight 6:17 AM CST 6:01 PM CST
Astronomical Twilight 5:43 AM CST 6:34 PM CST
Moon 8:39 PM CST (1/19) 8:48 AM CST (1/19)
Length of Visible Light 10h 35m
Length of Day
9h 33m
Waning Gibbous, 89% of the Moon is Illuminated
Jan 19
Waning Gibbous
Jan 23
Last Quarter
Jan 30
New
Feb 6
First Quarter
Feb 14
Full

Hourly Weather History & Observations

Time (CST) Temp. Windchill Dew Point Humidity Pressure Visibility Wind Dir Wind Speed Gust Speed Precip Events Conditions
12:15 AM 8.2 °F -1.8 °F 5.5 °F 89% 29.87 in 10.0 mi WSW 5.8 mph - N/A   Unknown
12:35 AM 8.6 °F 0.1 °F 5.7 °F 88% 29.87 in 10.0 mi WSW 4.6 mph - N/A   Unknown
12:55 AM 8.4 °F -1.6 °F 5.7 °F 89% 29.86 in 10.0 mi WSW 5.8 mph - N/A   Unknown
1:15 AM 8.8 °F 0.4 °F 5.9 °F 88% 29.85 in 10.0 mi SW 4.6 mph - N/A   Unknown
1:35 AM 8.6 °F -2.6 °F 5.9 °F 89% 29.85 in 10.0 mi WSW 6.9 mph - N/A   Unknown
1:55 AM 9.5 °F -3.5 °F 6.8 °F 89% 29.84 in 10.0 mi WSW 9.2 mph - N/A   Unknown
2:15 AM 11.1 °F -1.6 °F 8.2 °F 88% 29.84 in 10.0 mi SW 9.2 mph - N/A   Unknown
2:35 AM 11.1 °F -2.4 °F 8.2 °F 88% 29.86 in 10.0 mi WSW 10.4 mph - N/A   Unknown
2:55 AM 11.1 °F -2.4 °F 8.2 °F 88% 29.85 in 10.0 mi WSW 10.4 mph - N/A   Unknown
3:15 AM 11.1 °F -2.4 °F 8.2 °F 88% 29.85 in 10.0 mi WSW 10.4 mph - N/A   Unknown
3:35 AM 11.1 °F -3.9 °F 8.2 °F 88% 29.83 in 10.0 mi WSW 12.7 mph 17.3 mph N/A   Unknown
3:55 AM 11.1 °F -3.9 °F 8.2 °F 88% 29.81 in 10.0 mi SW 12.7 mph 16.1 mph N/A   Unknown
4:15 AM 11.1 °F -4.5 °F 8.2 °F 88% 29.79 in 10.0 mi SW 13.8 mph 19.6 mph N/A   Unknown
4:35 AM 13.6 °F -0.7 °F 10.9 °F 89% 29.79 in 10.0 mi SW 12.7 mph 18.4 mph N/A   Unknown
4:55 AM 13.6 °F -2.4 °F 10.9 °F 89% 29.78 in 10.0 mi SW 16.1 mph 20.7 mph N/A   Unknown
5:15 AM 13.6 °F -2.4 °F 10.9 °F 89% 29.77 in 10.0 mi SW 16.1 mph - N/A   Unknown
5:35 AM 14.2 °F -1.2 °F 11.3 °F 88% 29.77 in 10.0 mi WSW 15.0 mph 21.9 mph N/A   Unknown
5:55 AM 14.9 °F -0.8 °F 11.8 °F 88% 29.76 in 7.0 mi WSW 16.1 mph 26.5 mph N/A   Unknown
6:15 AM 14.9 °F -1.3 °F 11.7 °F 87% 29.75 in 10.0 mi WSW 17.3 mph - N/A   Unknown
6:35 AM 16.0 °F 0.1 °F 12.7 °F 87% 29.74 in 10.0 mi SW 17.3 mph 23.0 mph N/A   Unknown
6:55 AM 16.2 °F 0.8 °F 12.9 °F 87% 29.74 in 10.0 mi SW 16.1 mph 26.5 mph N/A   Unknown
7:15 AM 16.2 °F 0.3 °F 13.1 °F 88% 29.74 in 10.0 mi SW 17.3 mph - N/A   Unknown
7:35 AM 16.2 °F 1.3 °F 13.1 °F 88% 29.72 in 10.0 mi SW 15.0 mph 24.2 mph N/A   Unknown
7:55 AM 17.1 °F 0.6 °F 13.6 °F 86% 29.71 in 10.0 mi SW 19.6 mph 23.0 mph N/A   Unknown
8:15 AM 18.5 °F 2.0 °F 15.4 °F 88% 29.69 in 4.0 mi SW 20.7 mph 28.8 mph N/A   Mist
8:35 AM 18.5 °F 1.3 °F 15.3 °F 87% 29.69 in 5.0 mi SW 23.0 mph 28.8 mph N/A   Mist
8:55 AM 20.3 °F 4.8 °F 16.9 °F 87% 29.70 in 5.0 mi WSW 19.6 mph 28.8 mph N/A   Mist
9:15 AM 21.2 °F 5.6 °F 17.6 °F 86% 29.70 in 4.0 mi SW 20.7 mph 28.8 mph N/A   Mist
9:35 AM 21.7 °F 4.9 °F 18.1 °F 86% 29.69 in 4.0 mi SW 25.3 mph 31.1 mph N/A   Mist
9:55 AM 23.7 °F 9.3 °F 19.9 °F 85% 29.69 in 5.0 mi SW 19.6 mph 28.8 mph N/A   Mist
10:15 AM 24.1 °F 9.8 °F 19.9 °F 84% 29.69 in 7.0 mi WSW 19.6 mph 26.5 mph N/A   Unknown
10:35 AM 24.8 °F 10.7 °F 20.3 °F 83% 29.68 in 7.0 mi SW 19.6 mph 28.8 mph N/A   Unknown
10:55 AM 25.5 °F 12.9 °F 21.2 °F 84% 29.68 in 10.0 mi SW 16.1 mph 21.9 mph N/A   Unknown
11:35 AM 27.5 °F 15.9 °F 22.1 °F 80% 29.66 in 10.0 mi WSW 15.0 mph 20.7 mph N/A   Unknown
11:55 AM 28.8 °F 17.0 °F 23.0 °F 79% 29.66 in 10.0 mi WSW 16.1 mph 23.0 mph N/A   Unknown
12:15 PM 28.9 °F 16.9 °F 22.8 °F 78% 29.65 in 10.0 mi WSW 17.3 mph 24.2 mph 0.01 in   Unknown
12:35 PM 29.3 °F 17.0 °F 23.4 °F 78% 29.64 in 10.0 mi WSW 18.4 mph 21.9 mph 0.01 in   Unknown
1:15 PM 31.5 °F 21.8 °F 25.7 °F 79% 29.62 in 10.0 mi SW 12.7 mph 23.0 mph N/A   Unknown
1:35 PM 31.5 °F 20.5 °F 25.7 °F 79% 29.61 in 10.0 mi SW 16.1 mph 21.9 mph N/A   Unknown
1:55 PM 31.5 °F 20.9 °F 26.1 °F 80% 29.60 in 10.0 mi SW 15.0 mph - 0.01 in   Unknown
2:55 PM 33.8 °F 24.8 °F 28.4 °F 81% 29.56 in 10.0 mi SW 12.7 mph 18.4 mph N/A   Unknown
2:56 PM 33.8 °F 24.3 °F 28.4 °F 81% 29.56 in 10.0 mi SW 13.8 mph 18.4 mph N/A   Unknown
3:15 PM 33.8 °F 23.9 °F 28.0 °F 79% 29.55 in 10.0 mi SW 15.0 mph 19.6 mph N/A   Unknown
3:35 PM 34.0 °F 24.2 °F 28.4 °F 80% 29.54 in 10.0 mi SW 15.0 mph - N/A   Unknown
3:55 PM 34.5 °F 25.3 °F 28.9 °F 80% 29.55 in 10.0 mi SW 13.8 mph - N/A   Unknown
4:15 PM 33.8 °F 24.3 °F 28.2 °F 80% 29.55 in 10.0 mi SW 13.8 mph 20.7 mph N/A   Unknown
4:35 PM 34.2 °F 24.4 °F 28.6 °F 80% 29.55 in 10.0 mi SW 15.0 mph - N/A   Unknown
4:55 PM 36.1 °F 26.5 °F 29.8 °F 78% 29.55 in 10.0 mi WSW 16.1 mph - N/A   Unknown
5:15 PM 36.1 °F 27.7 °F 29.7 °F 77% 29.55 in 10.0 mi WSW 12.7 mph - N/A   Unknown
5:35 PM 35.4 °F 26.4 °F 29.5 °F 79% 29.55 in 10.0 mi SW 13.8 mph - N/A   Unknown
5:55 PM 34.9 °F 25.7 °F 28.9 °F 79% 29.55 in 10.0 mi SW 13.8 mph - N/A   Unknown
6:15 PM 34.7 °F 25.9 °F 29.3 °F 81% 29.55 in 10.0 mi SW 12.7 mph - N/A   Unknown
6:55 PM 36.1 °F 27.7 °F 30.6 °F 80% 29.54 in 10.0 mi SW 12.7 mph - N/A   Unknown
7:15 PM 36.1 °F 27.3 °F 30.2 °F 79% 29.54 in 10.0 mi WSW 13.8 mph - N/A   Unknown
7:35 PM 36.1 °F 26.9 °F 30.6 °F 80% 29.54 in 10.0 mi WSW 15.0 mph 19.6 mph N/A   Unknown
7:55 PM 35.1 °F 26.4 °F 30.0 °F 82% 29.54 in 10.0 mi WSW 12.7 mph - N/A   Unknown
8:15 PM 36.1 °F 27.7 °F 30.6 °F 80% 29.54 in 10.0 mi WSW 12.7 mph - N/A   Unknown
8:35 PM 36.1 °F 28.2 °F 30.6 °F 80% 29.54 in 10.0 mi WSW 11.5 mph - N/A   Unknown
8:55 PM 38.7 °F 31.4 °F 32.0 °F 77% 29.55 in 10.0 mi West 11.5 mph 18.4 mph N/A   Unknown
9:15 PM 38.7 °F 30.9 °F 31.8 °F 76% 29.56 in 10.0 mi West 12.7 mph 20.7 mph N/A   Unknown
9:35 PM 38.7 °F 30.1 °F 32.0 °F 77% 29.57 in 10.0 mi West 15.0 mph 19.6 mph N/A   Unknown
9:55 PM 38.7 °F 30.9 °F 32.0 °F 77% 29.59 in 10.0 mi WNW 12.7 mph - N/A   Unknown
10:15 PM 38.7 °F 30.5 °F 32.0 °F 77% 29.60 in 10.0 mi WNW 13.8 mph - N/A   Unknown
10:35 PM 38.7 °F 30.1 °F 32.0 °F 77% 29.61 in 10.0 mi WNW 15.0 mph 19.6 mph N/A   Unknown
10:55 PM 36.1 °F 28.7 °F 30.4 °F 80% 29.62 in 10.0 mi WNW 10.4 mph - N/A   Unknown
11:15 PM 36.1 °F 28.7 °F 30.9 °F 81% 29.62 in 10.0 mi WNW 10.4 mph 17.3 mph N/A   Unknown
11:35 PM 34.9 °F 27.7 °F 30.0 °F 82% 29.63 in 10.0 mi WNW 9.2 mph - N/A   Unknown
11:55 PM 34.9 °F 26.6 °F 30.2 °F 83% 29.64 in 10.0 mi WNW 11.5 mph - N/A   Unknown